createdAt,value
2023-07-19T00:02:08.665Z,23.24
2023-07-19T00:05:12.290Z,23.26
2023-07-19T00:08:15.695Z,23.23
2023-07-19T00:11:17.976Z,23.20
2023-07-19T00:14:20.737Z,23.25
2023-07-19T00:17:22.828Z,23.11
2023-07-19T00:20:26.299Z,22.99
2023-07-19T00:23:28.290Z,22.91
2023-07-19T00:26:30.291Z,22.86
2023-07-19T00:29:32.413Z,22.71
2023-07-19T00:32:34.510Z,22.63
2023-07-19T00:35:42.484Z,22.64
2023-07-19T00:38:45.728Z,22.75
2023-07-19T00:41:47.728Z,22.83
2023-07-19T00:44:49.782Z,22.86
2023-07-19T00:47:52.074Z,22.89
2023-07-19T00:50:56.954Z,22.98
2023-07-19T00:54:00.930Z,22.72
2023-07-19T00:57:04.635Z,22.35
2023-07-19T01:00:08.392Z,22.13
2023-07-19T01:03:10.719Z,22.07
2023-07-19T01:06:14.363Z,21.94
2023-07-19T01:09:16.330Z,21.82
2023-07-19T01:12:19.392Z,21.89
2023-07-19T01:15:21.440Z,22.01
2023-07-19T01:18:23.435Z,21.96
2023-07-19T01:21:29.173Z,21.89
2023-07-19T01:24:33.804Z,21.84
2023-07-19T01:27:38.594Z,21.98
2023-07-19T01:30:40.704Z,22.06
2023-07-19T01:33:42.857Z,22.13
2023-07-19T01:36:44.847Z,22.04
2023-07-19T01:39:48.218Z,21.97
2023-07-19T01:42:50.294Z,21.94
2023-07-19T01:45:53.934Z,21.69
2023-07-19T01:48:55.920Z,21.53
2023-07-19T01:51:57.990Z,21.41
2023-07-19T01:55:01.346Z,21.26
2023-07-19T01:58:03.593Z,21.19
2023-07-19T02:01:05.904Z,21.11
2023-07-19T02:04:08.035Z,21.15
2023-07-19T02:07:10.120Z,21.12
2023-07-19T02:10:13.601Z,21.10
2023-07-19T02:13:15.704Z,21.13
2023-07-19T02:16:17.754Z,21.14
2023-07-19T02:19:19.793Z,21.08
2023-07-19T02:22:21.842Z,21.05
2023-07-19T02:25:25.230Z,20.97
2023-07-19T02:28:27.295Z,20.96
2023-07-19T02:31:29.511Z,20.78
2023-07-19T02:34:31.714Z,20.71
2023-07-19T02:37:33.714Z,20.74
2023-07-19T02:40:38.028Z,20.61
2023-07-19T02:43:39.968Z,20.55
2023-07-19T02:46:41.910Z,20.58
2023-07-19T02:49:43.802Z,20.47
2023-07-19T02:52:45.768Z,20.43
2023-07-19T02:55:49.169Z,20.41
2023-07-19T02:58:51.560Z,20.32
2023-07-19T03:01:53.544Z,20.33
2023-07-19T03:04:56.748Z,20.37
2023-07-19T03:07:58.644Z,20.30
2023-07-19T03:11:02.060Z,20.34
2023-07-19T03:14:04.107Z,20.43
2023-07-19T03:17:06.631Z,20.40
2023-07-19T03:20:10.826Z,20.49
2023-07-19T03:23:12.994Z,20.58
2023-07-19T03:26:16.592Z,20.62
2023-07-19T03:29:18.549Z,20.58
2023-07-19T03:32:20.537Z,20.62
2023-07-19T03:35:22.768Z,20.67
2023-07-19T03:38:24.745Z,20.69
2023-07-19T03:41:28.186Z,20.70
2023-07-19T03:44:30.114Z,20.65
2023-07-19T03:47:32.256Z,20.62
2023-07-19T03:50:34.288Z,20.57
2023-07-19T03:53:36.430Z,20.62
2023-07-19T03:56:39.806Z,20.38
2023-07-19T03:59:41.971Z,20.28
2023-07-19T04:02:43.986Z,20.20
2023-07-19T04:05:46.150Z,20.22
2023-07-19T04:08:48.254Z,20.29
2023-07-19T04:11:51.705Z,20.49
2023-07-19T04:14:53.874Z,20.69
2023-07-19T04:17:56.610Z,20.71
2023-07-19T04:20:59.949Z,20.70
2023-07-19T04:24:02.028Z,20.76
2023-07-19T04:27:06.075Z,20.90
2023-07-19T04:30:09.047Z,21.02
2023-07-19T04:33:11.775Z,21.18
2023-07-19T04:36:15.219Z,21.43
2023-07-19T04:39:18.276Z,21.70
2023-07-19T04:42:23.488Z,21.94
2023-07-19T04:45:25.917Z,22.16
2023-07-19T04:48:27.976Z,22.20
2023-07-19T04:51:30.082Z,22.30
2023-07-19T04:54:32.113Z,22.38
2023-07-19T04:57:35.758Z,22.24
2023-07-19T05:00:37.797Z,22.16
2023-07-19T05:03:39.794Z,22.23
2023-07-19T05:06:41.747Z,22.14
2023-07-19T05:09:43.910Z,22.19
2023-07-19T05:12:51.647Z,22.05
2023-07-19T05:16:05.940Z,22.18
2023-07-19T05:19:39.306Z,22.42
2023-07-19T05:22:41.512Z,22.61
2023-07-19T05:26:01.278Z,22.95
2023-07-19T05:29:11.966Z,23.29
2023-07-19T05:32:14.002Z,23.24
2023-07-19T05:35:16.065Z,23.45
2023-07-19T05:38:19.120Z,23.46
2023-07-19T05:41:21.666Z,23.30
2023-07-19T05:44:25.386Z,23.43
2023-07-19T05:47:29.892Z,23.45
2023-07-19T05:50:33.051Z,23.50
2023-07-19T05:53:35.229Z,23.46
2023-07-19T05:56:37.289Z,23.40
2023-07-19T05:59:40.725Z,23.42
2023-07-19T06:02:53.584Z,23.12
2023-07-19T06:05:56.743Z,23.20
2023-07-19T06:08:58.774Z,23.26
2023-07-19T06:12:01.316Z,23.65
2023-07-19T06:15:05.681Z,23.48
2023-07-19T06:18:07.636Z,23.82
2023-07-19T06:21:09.713Z,23.92
2023-07-19T06:24:11.786Z,23.68
2023-07-19T06:27:13.878Z,23.87
2023-07-19T06:30:17.277Z,23.95
2023-07-19T06:33:19.297Z,24.21
2023-07-19T06:36:21.234Z,24.30
2023-07-19T06:39:23.285Z,24.46
2023-07-19T06:42:25.277Z,24.50
2023-07-19T06:45:28.702Z,24.50
2023-07-19T06:48:30.717Z,24.53
2023-07-19T06:51:32.748Z,24.43
2023-07-19T06:54:34.788Z,24.42
2023-07-19T06:57:36.808Z,24.48
2023-07-19T07:00:40.380Z,24.57
2023-07-19T07:03:42.499Z,24.48
2023-07-19T07:06:44.512Z,24.15
2023-07-19T07:09:46.706Z,24.00
2023-07-19T07:12:48.791Z,24.35
2023-07-19T07:15:53.132Z,24.41
2023-07-19T07:18:55.214Z,24.76
2023-07-19T07:21:57.194Z,24.84
2023-07-19T07:24:59.458Z,24.85
2023-07-19T07:28:01.474Z,25.05
2023-07-19T07:31:11.184Z,24.66
2023-07-19T07:34:13.824Z,24.62
2023-07-19T07:37:15.892Z,24.78
2023-07-19T07:40:18.057Z,25.05
2023-07-19T07:43:20.136Z,24.85
2023-07-19T07:46:23.503Z,24.97
2023-07-19T07:49:25.545Z,25.22
2023-07-19T07:52:27.583Z,25.45
2023-07-19T07:55:29.738Z,25.50
2023-07-19T07:58:31.885Z,24.94
2023-07-19T08:01:35.353Z,25.35
2023-07-19T08:04:37.400Z,25.45
2023-07-19T08:07:39.335Z,25.62
2023-07-19T08:10:41.416Z,25.91
2023-07-19T08:13:43.349Z,26.18
2023-07-19T08:16:46.766Z,25.98
2023-07-19T08:19:48.735Z,25.77
2023-07-19T08:22:50.838Z,25.55
2023-07-19T08:25:56.355Z,25.66
2023-07-19T08:28:58.767Z,25.92
2023-07-19T08:32:02.369Z,26.01
2023-07-19T08:35:05.069Z,25.78
2023-07-19T08:38:07.072Z,26.05
2023-07-19T08:41:13.420Z,26.09
2023-07-19T08:44:16.211Z,26.06
2023-07-19T08:47:19.734Z,26.40
2023-07-19T08:50:23.037Z,26.64
2023-07-19T08:53:26.708Z,26.41
2023-07-19T08:56:32.028Z,26.17
2023-07-19T08:59:34.122Z,26.29
2023-07-19T09:02:37.728Z,26.21
2023-07-19T09:05:39.867Z,26.16
2023-07-19T09:08:42.340Z,26.29
2023-07-19T09:11:47.352Z,26.51
2023-07-19T09:14:49.256Z,26.49
2023-07-19T09:17:52.748Z,26.41
2023-07-19T09:20:59.589Z,26.41
2023-07-19T09:24:05.391Z,26.76
2023-07-19T09:27:07.540Z,26.62
2023-07-19T09:30:10.821Z,26.52
2023-07-19T09:33:17.437Z,26.45
2023-07-19T09:36:22.367Z,26.54
2023-07-19T09:39:24.491Z,26.68
2023-07-19T09:42:26.813Z,26.40
2023-07-19T09:45:32.935Z,26.42
2023-07-19T09:48:37.573Z,26.73
2023-07-19T09:51:43.568Z,26.68
2023-07-19T09:54:46.174Z,27.19
2023-07-19T09:57:50.775Z,27.50
2023-07-19T10:00:52.796Z,27.52
2023-07-19T10:03:58.728Z,27.37
2023-07-19T10:07:08.403Z,27.60
2023-07-19T10:10:15.336Z,27.74
2023-07-19T10:13:17.366Z,27.93
2023-07-19T10:16:23.945Z,27.90
2023-07-19T10:19:28.497Z,27.95
2023-07-19T10:22:53.278Z,28.12
2023-07-19T10:25:55.329Z,28.07
2023-07-19T10:29:02.679Z,28.40
2023-07-19T10:32:05.364Z,28.76
2023-07-19T10:35:31.835Z,28.66
2023-07-19T10:38:34.112Z,28.70
2023-07-19T10:41:36.340Z,28.56
2023-07-19T10:44:41.258Z,28.93
2023-07-19T10:47:43.290Z,28.41
2023-07-19T10:50:47.893Z,28.84
2023-07-19T10:53:57.800Z,29.23
2023-07-19T10:57:00.452Z,29.02
2023-07-19T11:00:04.432Z,28.95
2023-07-19T11:03:08.463Z,29.00
2023-07-19T11:06:11.864Z,29.27
2023-07-19T11:09:14.135Z,29.38
2023-07-19T11:12:16.310Z,29.81
2023-07-19T11:15:18.592Z,29.99
2023-07-19T11:18:28.150Z,29.83
2023-07-19T11:21:31.534Z,29.70
2023-07-19T11:24:38.024Z,29.53
2023-07-19T11:27:40.406Z,30.16
2023-07-19T11:30:42.541Z,29.68
2023-07-19T11:33:49.291Z,30.08
2023-07-19T11:36:53.167Z,30.29
2023-07-19T11:39:59.161Z,30.09
2023-07-19T11:43:01.525Z,30.59
2023-07-19T11:46:03.515Z,30.88
2023-07-19T11:49:11.968Z,30.74
2023-07-19T11:52:15.308Z,30.66
2023-07-19T11:55:18.122Z,30.44
2023-07-19T11:58:28.346Z,30.39
2023-07-19T12:01:37.649Z,30.79
2023-07-19T12:04:39.741Z,30.61
2023-07-19T12:07:43.649Z,30.63
2023-07-19T12:10:45.745Z,30.56
2023-07-19T12:13:49.131Z,30.78
2023-07-19T12:16:51.134Z,31.24
2023-07-19T12:19:54.574Z,31.04
2023-07-19T12:22:58.039Z,30.87
2023-07-19T12:26:00.080Z,31.62
2023-07-19T12:29:02.052Z,31.13
2023-07-19T12:32:05.196Z,31.36
2023-07-19T12:35:07.488Z,30.64
2023-07-19T12:38:11.015Z,31.07
2023-07-19T12:41:13.008Z,31.05
2023-07-19T12:44:15.045Z,31.66
2023-07-19T12:47:17.112Z,31.80
2023-07-19T12:50:19.227Z,31.80
2023-07-19T12:53:22.557Z,31.65
2023-07-19T12:56:25.185Z,31.94
2023-07-19T12:59:27.187Z,32.42
2023-07-19T13:02:29.508Z,31.91
2023-07-19T13:05:31.720Z,32.16
2023-07-19T13:08:34.959Z,32.44
2023-07-19T13:11:37.535Z,32.30
2023-07-19T13:14:41.008Z,32.10
2023-07-19T13:17:43.204Z,32.25
2023-07-19T13:20:45.154Z,32.26
2023-07-19T13:23:49.035Z,31.81
2023-07-19T13:26:51.153Z,31.89
2023-07-19T13:29:55.080Z,32.06
2023-07-19T13:32:57.057Z,32.36
2023-07-19T13:35:59.281Z,32.24
2023-07-19T13:39:02.673Z,32.44
2023-07-19T13:42:06.880Z,32.32
2023-07-19T13:45:09.834Z,32.04
2023-07-19T13:48:11.904Z,32.40
2023-07-19T13:51:13.857Z,31.98
2023-07-19T13:54:17.120Z,32.17
2023-07-19T13:57:19.152Z,32.57
2023-07-19T14:00:21.147Z,32.58
2023-07-19T14:06:32.029Z,32.38
2023-07-19T14:09:35.598Z,32.76
2023-07-19T14:12:38.767Z,32.95
2023-07-19T14:18:48.375Z,32.44
2023-07-19T14:21:50.443Z,32.01
2023-07-19T14:24:53.789Z,31.91
2023-07-19T14:27:56.774Z,31.60
2023-07-19T14:30:58.731Z,32.18
2023-07-19T14:34:00.975Z,32.26
2023-07-19T14:37:02.920Z,31.85
2023-07-19T14:40:07.579Z,32.04
2023-07-19T14:43:09.569Z,31.62
2023-07-19T14:46:11.655Z,31.56
2023-07-19T14:49:13.681Z,31.49
2023-07-19T14:52:15.928Z,31.25
2023-07-19T14:55:19.519Z,31.11
2023-07-19T14:58:21.509Z,31.19
2023-07-19T15:01:23.756Z,30.79
2023-07-19T15:04:26.123Z,30.71
2023-07-19T15:07:28.279Z,30.81
2023-07-19T15:10:31.936Z,30.59
2023-07-19T15:13:33.942Z,30.61
2023-07-19T15:16:36.025Z,30.56
2023-07-19T15:19:39.946Z,30.37
2023-07-19T15:22:42.194Z,30.18
2023-07-19T15:25:45.594Z,30.17
2023-07-19T15:28:48.160Z,30.05
2023-07-19T15:31:50.010Z,30.07
2023-07-19T15:34:51.968Z,30.22
2023-07-19T15:37:53.977Z,30.04
2023-07-19T15:40:57.388Z,30.03
2023-07-19T15:43:59.366Z,29.89
2023-07-19T15:47:01.423Z,29.82
2023-07-19T15:50:05.327Z,29.70
2023-07-19T15:53:07.422Z,29.58
2023-07-19T15:56:11.707Z,29.59
2023-07-19T15:59:13.666Z,29.48
2023-07-19T16:02:17.397Z,29.27
2023-07-19T16:05:19.724Z,29.15
2023-07-19T16:08:22.327Z,29.06
2023-07-19T16:11:25.667Z,29.10
2023-07-19T16:14:27.814Z,29.06
2023-07-19T16:17:29.778Z,29.34
2023-07-19T16:20:31.854Z,29.03
2023-07-19T16:23:34.241Z,28.82
2023-07-19T16:26:37.612Z,28.97
2023-07-19T16:29:39.617Z,28.87
2023-07-19T16:32:41.624Z,28.69
2023-07-19T16:35:43.537Z,28.54
2023-07-19T16:38:45.461Z,28.72
2023-07-19T16:41:48.895Z,28.61
2023-07-19T16:44:50.980Z,28.63
2023-07-19T16:47:59.607Z,28.51
2023-07-19T16:51:02.175Z,28.67
2023-07-19T16:54:04.320Z,28.53
2023-07-19T16:57:08.117Z,28.70
2023-07-19T17:00:16.256Z,28.80
2023-07-19T17:03:20.115Z,28.60
2023-07-19T17:06:22.091Z,28.54
2023-07-19T17:09:24.234Z,28.33
2023-07-19T17:12:27.702Z,28.18
2023-07-19T17:15:30.170Z,28.16
2023-07-19T17:18:33.881Z,28.23
2023-07-19T17:21:35.988Z,28.07
2023-07-19T17:24:38.788Z,28.18
2023-07-19T17:27:42.367Z,28.30
2023-07-19T17:30:45.076Z,27.83
2023-07-19T17:33:47.219Z,27.96
2023-07-19T17:36:49.660Z,28.18
2023-07-19T17:39:52.026Z,27.65
2023-07-19T17:42:57.092Z,27.83
2023-07-19T17:45:59.558Z,28.03
2023-07-19T17:49:01.540Z,28.16
2023-07-19T17:52:04.514Z,27.86
2023-07-19T17:55:07.688Z,27.55
2023-07-19T17:58:11.721Z,27.54
2023-07-19T18:01:17.224Z,27.43
2023-07-19T18:04:19.158Z,27.24
2023-07-19T18:07:21.499Z,26.92
2023-07-19T18:10:23.919Z,27.11
2023-07-19T18:13:28.816Z,27.06
2023-07-19T18:16:31.865Z,27.00
2023-07-19T18:19:34.287Z,26.97
2023-07-19T18:22:37.298Z,26.86
2023-07-19T18:25:40.068Z,27.37
2023-07-19T18:28:45.448Z,27.14
2023-07-19T18:31:48.358Z,27.19
2023-07-19T18:34:50.690Z,26.86
2023-07-19T18:37:53.736Z,26.71
2023-07-19T18:40:56.442Z,26.54
2023-07-19T18:44:00.214Z,26.35
2023-07-19T18:47:04.174Z,26.21
2023-07-19T18:50:07.596Z,26.44
2023-07-19T18:53:10.209Z,26.34
2023-07-19T18:56:13.087Z,26.08
2023-07-19T18:59:17.624Z,25.82
2023-07-19T19:02:20.395Z,25.88
2023-07-19T19:05:22.759Z,25.82
2023-07-19T19:08:25.009Z,25.81
2023-07-19T19:11:27.888Z,25.84
2023-07-19T19:14:31.997Z,25.97
2023-07-19T19:17:36.196Z,26.21
2023-07-19T19:20:38.797Z,26.46
2023-07-19T19:23:41.043Z,26.28
2023-07-19T19:26:58.516Z,26.30
2023-07-19T19:30:03.691Z,26.25
2023-07-19T19:33:06.705Z,26.05
2023-07-19T19:36:10.210Z,25.99
2023-07-19T19:39:27.214Z,25.96
2023-07-19T19:42:33.348Z,25.87
2023-07-19T19:45:40.784Z,25.90
2023-07-19T19:48:43.541Z,26.21
2023-07-19T19:51:46.928Z,25.71
2023-07-19T19:54:49.976Z,25.11
2023-07-19T19:57:55.242Z,24.82
2023-07-19T20:00:59.166Z,24.60
2023-07-19T20:04:04.530Z,24.67
2023-07-19T20:07:08.199Z,24.65
2023-07-19T20:13:22.197Z,24.64
2023-07-19T20:16:31.385Z,24.51
2023-07-19T20:19:38.329Z,24.38
2023-07-19T20:22:43.690Z,24.27
2023-07-19T20:25:48.201Z,24.15
2023-07-19T20:36:04.931Z,23.81
2023-07-19T20:38:46.874Z,23.76
2023-07-19T20:41:50.220Z,23.63
2023-07-19T20:44:55.876Z,23.69
2023-07-19T20:48:01.829Z,23.71
2023-07-19T20:51:10.794Z,23.66
2023-07-19T20:54:15.359Z,23.65
2023-07-19T20:57:17.570Z,23.65
2023-07-19T21:00:21.548Z,23.74
2023-07-19T21:03:25.271Z,23.80
2023-07-19T21:06:27.287Z,24.00
2023-07-19T21:09:29.354Z,24.10
2023-07-19T21:12:31.374Z,24.11
2023-07-19T21:15:33.397Z,24.04
2023-07-19T21:18:36.706Z,24.01
2023-07-19T21:21:38.689Z,23.98
2023-07-19T21:24:59.990Z,23.96
2023-07-19T21:28:02.665Z,23.97
2023-07-19T21:31:04.968Z,23.95
2023-07-19T21:34:08.500Z,23.93
2023-07-19T21:37:10.905Z,23.91
2023-07-19T21:40:13.216Z,23.91
2023-07-19T21:43:15.458Z,23.93
2023-07-19T21:46:17.544Z,23.95
2023-07-19T21:49:21.429Z,24.06
2023-07-19T21:52:23.499Z,23.95
2023-07-19T21:55:25.566Z,23.83
2023-07-19T21:58:28.318Z,23.70
2023-07-19T22:01:32.702Z,23.59
2023-07-19T22:04:38.186Z,23.47
2023-07-19T22:07:40.122Z,23.42
2023-07-19T22:10:42.221Z,23.38
2023-07-19T22:13:44.322Z,23.42
2023-07-19T22:16:49.933Z,23.51
2023-07-19T22:19:53.485Z,23.65
2023-07-19T22:22:55.624Z,23.75
2023-07-19T22:25:57.959Z,23.75
2023-07-19T22:29:00.791Z,23.61
2023-07-19T22:32:03.275Z,23.49
2023-07-19T22:35:07.642Z,23.48
2023-07-19T22:38:10.280Z,23.63
2023-07-19T22:41:12.359Z,23.71
2023-07-19T22:44:14.357Z,23.69
2023-07-19T22:47:16.594Z,23.70
2023-07-19T22:50:20.951Z,23.66
2023-07-19T22:53:22.929Z,23.53
2023-07-19T22:56:25.012Z,23.44
2023-07-19T22:59:27.117Z,23.33
2023-07-19T23:02:29.171Z,23.26
2023-07-19T23:05:32.782Z,23.17
2023-07-19T23:08:34.964Z,23.11
2023-07-19T23:11:39.469Z,23.15
2023-07-19T23:14:41.695Z,22.98
2023-07-19T23:17:43.811Z,23.07
2023-07-19T23:20:47.344Z,23.08
2023-07-19T23:23:49.387Z,22.99
2023-07-19T23:26:51.356Z,23.07
2023-07-19T23:29:55.384Z,23.05
2023-07-19T23:32:58.970Z,22.95
2023-07-19T23:36:02.435Z,23.00
2023-07-19T23:39:04.699Z,23.17
2023-07-19T23:42:07.018Z,23.28
2023-07-19T23:45:10.552Z,23.10
2023-07-19T23:48:12.694Z,22.89
2023-07-19T23:51:16.165Z,22.81
2023-07-19T23:54:19.589Z,22.78
2023-07-19T23:57:21.801Z,22.77
